createdAt,value
2018-08-30T11:42:18.012Z,5.10
2018-08-30T11:44:46.421Z,5.10
2018-08-30T11:47:16.266Z,4.87
2018-08-30T11:49:44.621Z,4.85
2018-08-30T11:52:17.319Z,5.08
2018-08-30T11:54:46.669Z,4.60
2018-08-30T11:57:15.057Z,4.60
2018-08-30T11:59:43.453Z,4.67
2018-08-30T12:02:12.348Z,4.37
2018-08-30T12:04:40.981Z,4.37
2018-08-30T12:07:09.365Z,4.35
2018-08-30T12:09:37.953Z,4.57
2018-08-30T12:12:06.431Z,4.28
2018-08-30T12:14:34.910Z,4.72
2018-08-30T12:17:04.845Z,4.62
2018-08-30T12:19:33.245Z,4.70
2018-08-30T12:22:01.601Z,4.40
2018-08-30T12:24:30.061Z,4.47
2018-08-30T12:26:58.438Z,4.50
2018-08-30T12:31:20.020Z,5.30
2018-08-30T12:33:48.454Z,6.37
2018-08-30T12:36:16.953Z,5.90
2018-08-30T12:38:45.443Z,5.63
2018-08-30T12:41:13.893Z,5.10
2018-08-30T12:43:42.346Z,5.37
2018-08-30T12:46:10.786Z,5.43
2018-08-30T12:48:39.236Z,5.63
2018-08-30T12:51:08.006Z,5.87
2018-08-30T12:53:36.434Z,5.20
2018-08-30T12:56:04.929Z,5.97
2018-08-30T12:58:33.495Z,5.30
2018-08-30T13:01:02.031Z,5.40
2018-08-30T13:03:30.439Z,5.70
2018-08-30T13:05:58.992Z,6.03
2018-08-30T13:08:28.099Z,5.80
2018-08-30T13:10:56.587Z,5.87
2018-08-30T13:13:24.984Z,6.10
2018-08-30T13:15:53.625Z,5.83
2018-08-30T13:18:22.041Z,5.53
2018-08-30T13:20:50.455Z,5.90
2018-08-30T13:23:18.912Z,5.70
2018-08-30T13:25:47.263Z,6.23
2018-08-30T13:28:15.807Z,6.10
2018-08-30T13:30:44.347Z,6.57
2018-08-30T13:33:19.906Z,5.90
2018-08-30T13:35:41.177Z,6.80
2018-08-30T13:38:09.917Z,6.30
2018-08-30T13:40:38.415Z,7.23
2018-08-30T13:43:06.816Z,6.67
2018-08-30T13:45:35.406Z,6.67
2018-08-30T13:48:03.808Z,6.87
2018-08-30T13:50:32.111Z,7.17
2018-08-30T13:53:00.767Z,6.43
2018-08-30T13:55:29.113Z,6.13
2018-08-30T13:57:57.734Z,7.33
2018-08-30T14:00:26.242Z,7.20
2018-08-30T14:02:54.300Z,12.73
2018-08-30T14:05:22.719Z,9.37
2018-08-30T14:07:51.175Z,7.30
2018-08-30T14:10:19.964Z,6.90
2018-08-30T14:12:48.095Z,8.03
2018-08-30T14:15:16.929Z,7.30
2018-08-30T14:17:44.851Z,8.07
2018-08-30T14:20:13.322Z,7.63
2018-08-30T14:22:41.762Z,7.33
2018-08-30T14:25:10.277Z,7.60
2018-08-30T14:27:38.605Z,7.40
2018-08-30T14:30:07.166Z,7.17
2018-08-30T14:32:35.670Z,8.00
2018-08-30T14:35:04.191Z,7.77
2018-08-30T14:37:32.622Z,7.40
2018-08-30T14:40:01.461Z,8.93
2018-08-30T14:42:29.949Z,8.00
2018-08-30T14:44:58.386Z,7.57
2018-08-30T14:47:26.921Z,7.90
2018-08-30T14:49:55.249Z,7.07
2018-08-30T14:52:23.765Z,7.67
2018-08-30T14:54:52.193Z,7.27
2018-08-30T14:57:20.705Z,8.13
2018-08-30T14:59:49.154Z,7.50
2018-08-30T15:02:17.547Z,7.40
2018-08-30T15:04:46.001Z,6.87
2018-08-30T15:07:14.488Z,7.50
2018-08-30T15:09:42.892Z,7.63
2018-08-30T15:12:11.315Z,7.60
2018-08-30T15:14:39.736Z,7.70
2018-08-30T15:17:08.303Z,7.17
2018-08-30T15:19:36.686Z,8.63
2018-08-30T15:22:05.237Z,7.70
2018-08-30T15:24:33.938Z,8.20
2018-08-30T15:27:02.693Z,8.10
2018-08-30T15:29:31.062Z,7.90
2018-08-30T15:31:59.535Z,7.70
2018-08-30T15:34:27.829Z,6.33
2018-08-30T15:36:56.282Z,6.77
2018-08-30T15:39:24.801Z,7.33
2018-08-30T15:41:53.330Z,7.27
2018-08-30T15:44:21.773Z,8.00
2018-08-30T15:46:50.244Z,7.20
2018-08-30T15:49:18.764Z,7.17
2018-08-30T15:51:47.202Z,8.30
2018-08-30T15:54:15.687Z,7.57
2018-08-30T15:56:44.464Z,7.67
2018-08-30T15:59:12.903Z,8.07
2018-08-30T16:01:41.332Z,7.73
2018-08-30T16:04:09.783Z,7.60
2018-08-30T16:06:38.258Z,8.20
2018-08-30T16:09:09.072Z,7.40
2018-08-30T16:11:37.495Z,7.37
2018-08-30T16:14:05.937Z,8.20
2018-08-30T16:16:34.921Z,7.90
2018-08-30T16:19:03.456Z,8.13
2018-08-30T16:21:31.869Z,7.97
2018-08-30T16:24:00.311Z,8.30
2018-08-30T16:26:28.719Z,8.73
2018-08-30T16:28:57.181Z,7.40
2018-08-30T16:31:25.655Z,7.20
2018-08-30T16:33:54.065Z,7.33
2018-08-30T16:36:22.469Z,7.80
2018-08-30T16:38:50.893Z,7.80
2018-08-30T16:41:19.402Z,7.60
2018-08-30T16:43:47.760Z,7.67
2018-08-30T16:46:16.153Z,7.23
2018-08-30T16:48:44.656Z,8.20
2018-08-30T16:51:13.066Z,7.73
2018-08-30T16:53:41.461Z,7.03
2018-08-30T16:56:09.939Z,7.97
2018-08-30T16:58:38.396Z,7.87
2018-08-30T17:01:06.793Z,7.20
2018-08-30T17:03:35.201Z,7.40
2018-08-30T17:06:03.659Z,7.50
2018-08-30T17:08:32.289Z,7.97
2018-08-30T17:11:00.653Z,7.40
2018-08-30T17:13:29.054Z,7.77
2018-08-30T17:15:57.469Z,7.47
2018-08-30T17:18:25.894Z,6.73
2018-08-30T17:20:55.674Z,6.57
2018-08-30T17:23:24.084Z,6.37
2018-08-30T17:25:52.541Z,6.90
2018-08-30T17:28:20.984Z,6.70
2018-08-30T17:30:49.811Z,7.30
2018-08-30T17:33:18.253Z,7.60
2018-08-30T17:35:46.664Z,7.60
2018-08-30T17:38:15.112Z,7.13
2018-08-30T17:40:43.496Z,7.03
2018-08-30T17:43:11.922Z,7.13
2018-08-30T17:45:40.365Z,6.73
2018-08-30T17:48:08.797Z,7.17
2018-08-30T17:50:37.350Z,7.30
2018-08-30T17:53:05.688Z,7.80
2018-08-30T17:55:34.167Z,7.57
2018-08-30T17:58:02.664Z,7.73
2018-08-30T18:00:31.054Z,8.03
2018-08-30T18:02:59.481Z,8.37
2018-08-30T18:05:27.914Z,8.17
2018-08-30T18:07:56.381Z,8.00
2018-08-30T18:10:24.787Z,7.57
2018-08-30T18:12:53.230Z,7.73
2018-08-30T18:15:21.673Z,8.00
2018-08-30T18:17:50.114Z,8.50
2018-08-30T18:20:18.504Z,7.77
2018-08-30T18:22:47.197Z,8.07
2018-08-30T18:25:15.745Z,7.80
2018-08-30T18:27:44.155Z,8.57
2018-08-30T18:30:12.721Z,8.20
2018-08-30T18:32:41.126Z,8.30
2018-08-30T18:35:10.330Z,8.43
2018-08-30T18:37:39.269Z,8.50
2018-08-30T18:40:08.596Z,9.27
2018-08-30T18:42:36.993Z,8.27
2018-08-30T18:45:05.530Z,8.57
2018-08-30T18:47:33.928Z,8.50
2018-08-30T18:50:02.454Z,8.10
2018-08-30T18:52:31.138Z,8.60
2018-08-30T18:54:59.578Z,8.53
2018-08-30T18:57:27.992Z,8.20
2018-08-30T18:59:56.457Z,9.83
2018-08-30T19:02:24.890Z,9.00
2018-08-30T19:04:53.349Z,8.37
2018-08-30T19:07:21.758Z,8.33
2018-08-30T19:09:50.277Z,8.43
2018-08-30T19:12:18.717Z,9.43
2018-08-30T19:14:47.186Z,8.47
2018-08-30T19:17:20.969Z,8.77
2018-08-30T19:19:49.380Z,9.10
2018-08-30T19:22:17.824Z,8.43
2018-08-30T19:24:51.734Z,9.87
2018-08-30T19:27:20.198Z,8.07
2018-08-30T19:29:54.038Z,8.27
2018-08-30T19:32:23.029Z,8.70
2018-08-30T19:34:51.552Z,8.77
2018-08-30T19:37:20.002Z,9.10
2018-08-30T19:39:48.455Z,9.13
2018-08-30T19:42:17.205Z,8.80
2018-08-30T19:44:46.018Z,9.00
2018-08-30T19:47:14.441Z,8.93
2018-08-30T19:49:43.218Z,8.37
2018-08-30T19:52:11.662Z,9.40
2018-08-30T19:54:40.371Z,10.63
2018-08-30T19:57:08.867Z,9.33
2018-08-30T19:59:37.382Z,9.70
2018-08-30T20:02:05.845Z,9.77
2018-08-30T20:04:34.275Z,9.87
2018-08-30T20:07:02.734Z,10.17
2018-08-30T20:09:31.734Z,10.20
2018-08-30T20:12:00.198Z,9.33
2018-08-30T20:14:28.602Z,9.27
2018-08-30T20:16:57.029Z,9.37
2018-08-30T20:19:25.417Z,9.07
2018-08-30T20:21:53.817Z,9.80
2018-08-30T20:24:22.267Z,9.17
2018-08-30T20:26:50.682Z,9.70
2018-08-30T20:29:19.142Z,9.07
2018-08-30T20:31:47.538Z,9.60
2018-08-30T20:34:15.973Z,9.00
2018-08-30T20:36:44.398Z,8.13
2018-08-30T20:39:12.866Z,8.70
2018-08-30T20:41:41.248Z,9.93
2018-08-30T20:44:09.677Z,11.97
2018-08-30T20:46:38.138Z,9.77
2018-08-30T20:49:06.634Z,9.30
2018-08-30T20:51:35.056Z,10.07
2018-08-30T20:54:03.507Z,8.70
2018-08-30T20:56:31.977Z,9.20
2018-08-30T20:59:00.413Z,8.67
2018-08-30T21:01:28.841Z,8.90
2018-08-30T21:03:57.268Z,8.63
2018-08-30T21:06:25.713Z,8.73
2018-08-30T21:08:54.165Z,8.43
2018-08-30T21:11:22.738Z,8.87
2018-08-30T21:13:51.138Z,8.37
2018-08-30T21:16:19.575Z,8.43
2018-08-30T21:18:48.021Z,9.27
2018-08-30T21:21:16.460Z,9.93
2018-08-30T21:23:44.872Z,10.03
2018-08-30T21:26:13.314Z,9.03
2018-08-30T21:28:41.783Z,9.33
2018-08-30T21:31:10.214Z,9.10
2018-08-30T21:33:38.613Z,8.10
2018-08-30T21:36:07.096Z,8.53
2018-08-30T21:38:35.512Z,9.00
2018-08-30T21:41:03.954Z,7.80
2018-08-30T21:43:32.375Z,8.73
2018-08-30T21:46:00.869Z,9.37
2018-08-30T21:48:29.278Z,8.90
2018-08-30T21:50:57.715Z,8.57
2018-08-30T21:53:26.105Z,10.00
2018-08-30T21:55:54.601Z,10.20
2018-08-30T21:58:22.996Z,9.13
2018-08-30T22:00:51.801Z,8.63
2018-08-30T22:03:20.428Z,8.70
2018-08-30T22:05:48.830Z,9.10
2018-08-30T22:08:17.333Z,8.93
2018-08-30T22:10:45.769Z,8.93
2018-08-30T22:13:14.278Z,8.83
2018-08-30T22:15:42.733Z,8.73
2018-08-30T22:18:12.216Z,9.47
2018-08-30T22:20:40.605Z,10.67
2018-08-30T22:23:09.032Z,10.47
2018-08-30T22:25:37.503Z,9.63
2018-08-30T22:28:06.285Z,9.73
2018-08-30T22:30:34.734Z,9.60
2018-08-30T22:33:03.149Z,8.97
2018-08-30T22:35:31.621Z,8.73
2018-08-30T22:38:00.057Z,9.33
2018-08-30T22:40:28.446Z,9.83
2018-08-30T22:42:56.884Z,9.67
2018-08-30T22:45:25.301Z,9.20
2018-08-30T22:47:53.748Z,8.83
2018-08-30T22:50:22.157Z,8.73
2018-08-30T22:52:50.562Z,9.67
2018-08-30T22:55:19.013Z,8.87
2018-08-30T22:57:47.496Z,9.17
2018-08-30T23:00:15.870Z,8.50
2018-08-30T23:02:44.275Z,9.73
2018-08-30T23:05:12.747Z,8.97
2018-08-30T23:07:41.165Z,8.87
2018-08-30T23:10:09.606Z,9.97
2018-08-30T23:12:37.997Z,9.70
2018-08-30T23:15:06.725Z,9.20
2018-08-30T23:17:35.114Z,10.07
2018-08-30T23:20:03.872Z,9.37
2018-08-30T23:22:32.287Z,9.27
2018-08-30T23:25:00.738Z,10.03
2018-08-30T23:27:29.135Z,9.33
2018-08-30T23:29:57.617Z,10.00
2018-08-30T23:32:26.019Z,9.43
2018-08-30T23:34:54.458Z,10.13
2018-08-30T23:37:22.834Z,9.37
2018-08-30T23:39:51.315Z,9.30
2018-08-30T23:42:19.693Z,9.73
2018-08-30T23:44:48.078Z,9.57
2018-08-30T23:47:16.518Z,8.90
2018-08-30T23:49:44.905Z,9.60
2018-08-30T23:52:13.332Z,8.67
2018-08-30T23:54:41.793Z,9.10
2018-08-30T23:57:10.292Z,9.73
2018-08-30T23:59:50.057Z,9.53
